Time;durP1;ratioP1;P1;durP2;ratioP2;P2;SDS_P1;SDS_P2;PMS_P1;PMS_P2;Temp;Humidity;BMP_temperature;BMP_pressure;BME280_temperature;BME280_humidity;BME280_pressure;Samples;Min_cycle;Max_cycle;Signal;HPM_P1;HPM_P2
2022/03/28 00:00:34;;;;;;;14.23;8.20;;;8.40;99.90;;;;;;4971902;28;21224;-81
2022/03/28 00:02:59;;;;;;;15.43;7.83;;;8.30;99.90;;;;;;4970412;28;20191;-83
2022/03/28 00:05:25;;;;;;;19.17;9.13;;;8.30;99.90;;;;;;4970293;28;21311;-84
2022/03/28 00:07:50;;;;;;;14.43;8.03;;;8.20;99.90;;;;;;4971394;28;20192;-82
2022/03/28 00:10:16;;;;;;;13.07;8.20;;;8.20;99.90;;;;;;4969226;28;20202;-83
2022/03/28 00:12:42;;;;;;;11.57;7.50;;;8.10;99.90;;;;;;4973111;28;20182;-79
2022/03/28 00:15:09;;;;;;;20.87;8.07;;;7.90;99.90;;;;;;4971343;28;20191;-77
2022/03/28 00:17:36;;;;;;;14.65;9.07;;;7.90;99.90;;;;;;4972564;28;20465;-80
2022/03/28 00:20:04;;;;;;;14.35;8.73;;;7.90;99.90;;;;;;4970703;28;20176;-80
2022/03/28 00:22:29;;;;;;;12.77;7.68;;;7.80;99.90;;;;;;4974739;28;20203;-78
2022/03/28 00:24:55;;;;;;;15.23;8.50;;;7.80;99.90;;;;;;4969517;28;20207;-79
2022/03/28 00:27:20;;;;;;;15.53;8.60;;;7.80;99.90;;;;;;4978340;28;20881;-78
2022/03/28 00:29:46;;;;;;;20.40;10.00;;;7.90;99.90;;;;;;4970033;28;20235;-78
2022/03/28 00:32:11;;;;;;;11.93;7.00;;;7.90;99.90;;;;;;4975446;28;20172;-78
2022/03/28 00:34:37;;;;;;;18.07;9.80;;;7.90;99.90;;;;;;4976705;28;20239;-80
2022/03/28 00:37:04;;;;;;;14.80;8.70;;;7.90;99.90;;;;;;4974142;28;20569;-80
2022/03/28 00:39:30;;;;;;;17.45;8.05;;;7.90;99.90;;;;;;4975274;28;20442;-79
2022/03/28 00:41:55;;;;;;;16.77;8.47;;;7.90;99.90;;;;;;4976425;28;20200;-80
2022/03/28 00:44:21;;;;;;;15.83;9.90;;;7.90;99.90;;;;;;4976141;28;20254;-79
2022/03/28 00:46:46;;;;;;;17.07;9.10;;;8.00;99.90;;;;;;4977758;28;20208;-80
2022/03/28 00:49:13;;;;;;;30.43;10.60;;;8.00;99.90;;;;;;4974461;28;20176;-82
2022/03/28 00:51:38;;;;;;;22.60;11.32;;;7.90;99.90;;;;;;4977747;28;20180;-80
2022/03/28 00:54:06;;;;;;;20.43;10.90;;;7.70;99.90;;;;;;4985944;28;20187;-81
2022/03/28 00:56:32;;;;;;;15.85;10.43;;;7.70;99.90;;;;;;4978657;28;20454;-78
2022/03/28 00:58:58;;;;;;;13.20;8.05;;;7.60;99.90;;;;;;4993917;28;20643;-80
2022/03/28 01:01:27;;;;;;;14.15;8.55;;;7.40;99.90;;;;;;4972659;28;20640;-78
2022/03/28 01:03:53;;;;;;;17.63;10.70;;;7.30;99.90;;;;;;4978023;28;20206;-79
2022/03/28 01:06:18;;;;;;;14.47;9.03;;;7.30;99.90;;;;;;4973813;28;20578;-79
2022/03/28 01:08:44;;;;;;;18.27;10.73;;;7.20;99.90;;;;;;4974187;28;20176;-80
2022/03/28 01:11:10;;;;;;;32.73;11.63;;;7.10;99.90;;;;;;4992565;28;20199;-80
2022/03/28 01:13:39;;;;;;;17.90;11.00;;;7.10;99.90;;;;;;4984826;28;20188;-79
2022/03/28 01:16:05;;;;;;;17.58;9.30;;;7.10;99.90;;;;;;4970407;28;20227;-79
2022/03/28 01:18:31;;;;;;;14.98;8.77;;;7.10;99.90;;;;;;4978570;28;20231;-79
2022/03/28 01:21:01;;;;;;;18.77;10.30;;;7.10;99.90;;;;;;4978412;28;20567;-78
2022/03/28 01:23:27;;;;;;;21.58;9.18;;;7.10;99.90;;;;;;4969265;28;20489;-78
2022/03/28 01:25:54;;;;;;;13.00;9.07;;;7.00;99.90;;;;;;4970897;28;20968;-79
2022/03/28 01:28:21;;;;;;;17.40;9.57;;;6.90;99.90;;;;;;4976059;23;20266;-84
2022/03/28 01:30:47;;;;;;;22.67;12.82;;;6.80;99.90;;;;;;4976036;28;20188;-85
2022/03/28 01:33:14;;;;;;;21.35;9.70;;;6.80;99.90;;;;;;4971600;28;20215;-84
2022/03/28 01:35:41;;;;;;;22.98;12.25;;;6.80;99.90;;;;;;4966961;28;20198;-85
2022/03/28 01:38:11;;;;;;;22.73;12.90;;;6.80;99.90;;;;;;4970200;28;20187;-84
2022/03/28 01:40:40;;;;;;;20.30;10.68;;;6.70;99.90;;;;;;4985912;28;20734;-86
2022/03/28 01:43:06;;;;;;;19.30;11.30;;;6.60;99.90;;;;;;4967236;28;20440;-83
2022/03/28 01:45:31;;;;;;;23.00;12.57;;;6.60;99.90;;;;;;4974497;28;21184;-84
2022/03/28 01:47:57;;;;;;;24.43;12.33;;;6.50;99.90;;;;;;4973156;28;20187;-85
2022/03/28 01:50:23;;;;;;;26.23;12.77;;;6.40;99.90;;;;;;4975204;28;20184;-86
2022/03/28 01:52:49;;;;;;;15.65;9.63;;;6.30;99.90;;;;;;4976025;28;20750;-85
2022/03/28 01:55:15;;;;;;;26.05;12.88;;;6.30;99.90;;;;;;4975417;28;20194;-83
2022/03/28 01:57:42;;;;;;;23.87;11.67;;;6.30;99.90;;;;;;4972729;28;20210;-86
2022/03/28 02:00:14;;;;;;;30.42;15.35;;;6.20;99.90;;;;;;4973438;28;20440;-84
2022/03/28 02:02:40;;;;;;;21.40;11.70;;;6.00;99.90;;;;;;4977947;28;20203;-85
2022/03/28 02:05:11;;;;;;;20.10;12.20;;;6.00;99.90;;;;;;4976745;28;20225;-85
2022/03/28 02:07:37;;;;;;;17.08;9.93;;;6.00;99.90;;;;;;4974240;28;20194;-85
2022/03/28 02:10:03;;;;;;;16.13;9.93;;;5.90;99.90;;;;;;4973112;28;20724;-85
2022/03/28 02:12:28;;;;;;;15.40;9.40;;;5.90;99.90;;;;;;4978037;28;20230;-86
2022/03/28 02:14:54;;;;;;;20.00;11.00;;;5.80;99.90;;;;;;4979830;28;20273;-85
2022/03/28 02:17:19;;;;;;;22.40;11.07;;;5.80;99.90;;;;;;4972722;28;20190;-84
2022/03/28 02:19:48;;;;;;;22.13;10.93;;;5.70;99.90;;;;;;4992232;28;20182;-84
2022/03/28 02:22:14;;;;;;;21.27;11.05;;;5.50;99.90;;;;;;4983772;28;20203;-85
2022/03/28 02:24:39;;;;;;;19.80;10.47;;;5.60;99.90;;;;;;4969842;28;20269;-85
2022/03/28 02:27:06;;;;;;;23.17;11.53;;;5.60;99.90;;;;;;4964740;28;20195;-85
2022/03/28 02:29:32;;;;;;;19.42;12.20;;;5.50;99.90;;;;;;4976996;28;20444;-86
2022/03/28 02:31:57;;;;;;;23.17;11.80;;;5.50;99.90;;;;;;4970141;28;20179;-82
2022/03/28 02:34:23;;;;;;;19.50;11.10;;;5.40;99.90;;;;;;4966166;28;20299;-83
2022/03/28 02:36:48;;;;;;;23.33;11.63;;;5.20;99.90;;;;;;4965791;28;20184;-82
2022/03/28 02:39:14;;;;;;;18.10;11.00;;;5.20;99.90;;;;;;4968882;28;20203;-82
2022/03/28 02:41:40;;;;;;;18.23;9.97;;;5.30;99.90;;;;;;4972974;28;20199;-84
2022/03/28 02:44:05;;;;;;;18.23;11.17;;;5.30;99.90;;;;;;4969769;28;20199;-85
2022/03/28 02:46:31;;;;;;;23.10;11.93;;;5.20;99.90;;;;;;4970198;28;20477;-84
2022/03/28 02:48:58;;;;;;;19.67;10.60;;;5.20;99.90;;;;;;4979033;28;20198;-87
2022/03/28 02:51:24;;;;;;;24.42;12.43;;;5.20;99.90;;;;;;4970609;28;20209;-86
2022/03/28 02:53:49;;;;;;;23.00;12.27;;;5.10;99.90;;;;;;4968071;28;20740;-85
2022/03/28 02:56:15;;;;;;;19.00;11.80;;;;;;;;;;4970117;28;20663;-86
2022/03/28 02:58:41;;;;;;;20.80;12.38;;;5.00;99.90;;;;;;4976701;28;20625;-84
2022/03/28 03:01:06;;;;;;;24.33;12.80;;;5.00;99.90;;;;;;4970844;28;20183;-84
2022/03/28 03:03:32;;;;;;;32.13;13.03;;;;;;;;;;4977359;28;20203;-84
2022/03/28 03:05:58;;;;;;;31.50;13.67;;;4.80;99.90;;;;;;4970786;28;22091;-83
2022/03/28 03:08:23;;;;;;;23.03;13.47;;;4.70;99.90;;;;;;4976727;28;20988;-82
2022/03/28 03:10:54;;;;;;;30.23;13.40;;;4.60;99.90;;;;;;4994505;28;20179;-82
2022/03/28 03:13:20;;;;;;;21.40;11.45;;;4.60;99.90;;;;;;4997140;28;22149;-81
2022/03/28 03:15:46;;;;;;;23.00;11.67;;;4.50;99.90;;;;;;5000402;28;20786;-83
2022/03/28 03:18:11;;;;;;;18.90;12.20;;;4.50;99.90;;;;;;4988171;28;20567;-84
2022/03/28 03:20:37;;;;;;;22.30;12.93;;;4.50;99.90;;;;;;4979340;28;20446;-83
2022/03/28 03:23:03;;;;;;;25.73;11.93;;;4.40;99.90;;;;;;4982438;28;20246;-82
2022/03/28 03:25:29;;;;;;;24.10;13.13;;;;;;;;;;4982267;28;20749;-89
2022/03/28 03:27:55;;;;;;;22.90;13.00;;;4.40;99.90;;;;;;4979887;28;20204;-84
2022/03/28 03:30:21;;;;;;;21.73;11.40;;;4.40;99.90;;;;;;4975403;28;20347;-85
2022/03/28 03:32:46;;;;;;;20.60;12.47;;;4.30;99.90;;;;;;4976121;28;20183;-81
2022/03/28 03:35:12;;;;;;;22.60;10.00;;;4.30;99.90;;;;;;4974335;28;20505;-84
2022/03/28 03:37:39;;;;;;;22.73;11.90;;;4.20;99.90;;;;;;4978642;28;20827;-87
2022/03/28 03:40:06;;;;;;;25.80;9.45;;;4.20;99.90;;;;;;4972885;28;20522;-84
2022/03/28 03:42:32;;;;;;;23.02;10.75;;;4.10;99.90;;;;;;4969240;28;20191;-85
2022/03/28 03:44:58;;;;;;;21.97;11.67;;;4.20;99.90;;;;;;4994607;28;20238;-84
2022/03/28 03:47:24;;;;;;;17.88;11.02;;;4.10;99.90;;;;;;4987820;28;20217;-86
2022/03/28 03:49:49;;;;;;;16.90;10.30;;;4.10;99.90;;;;;;4976845;28;20207;-83
2022/03/28 03:52:15;;;;;;;22.50;9.73;;;4.00;99.90;;;;;;4968066;28;20179;-86
2022/03/28 03:54:40;;;;;;;21.27;11.03;;;4.10;99.90;;;;;;4972214;28;20213;-83
2022/03/28 03:57:07;;;;;;;20.17;10.37;;;4.00;99.90;;;;;;4967385;28;20243;-83
2022/03/28 03:59:33;;;;;;;19.85;10.65;;;4.00;99.90;;;;;;4973455;28;20184;-85
2022/03/28 04:01:58;;;;;;;22.43;12.47;;;3.90;99.90;;;;;;4970958;28;20278;-82
2022/03/28 04:04:24;;;;;;;20.40;11.60;;;3.80;99.90;;;;;;4972349;28;20229;-83
2022/03/28 04:06:49;;;;;;;23.60;11.97;;;3.80;99.90;;;;;;4970111;28;20202;-84
2022/03/28 04:09:15;;;;;;;22.13;10.83;;;3.80;99.90;;;;;;4967187;28;20306;-83
2022/03/28 04:11:40;;;;;;;22.10;9.87;;;3.80;99.90;;;;;;4978076;28;20346;-85
2022/03/28 04:14:06;;;;;;;24.23;11.93;;;3.70;99.90;;;;;;4973045;28;20215;-86
2022/03/28 04:16:31;;;;;;;25.87;11.03;;;3.70;99.90;;;;;;4972482;28;20183;-83
2022/03/28 04:18:57;;;;;;;21.40;11.80;;;3.70;99.90;;;;;;4973107;28;20251;-83
2022/03/28 04:21:22;;;;;;;21.93;10.80;;;3.80;99.90;;;;;;4974812;28;20954;-86
2022/03/28 04:23:48;;;;;;;30.30;10.63;;;3.80;99.90;;;;;;4975116;28;20222;-87
2022/03/28 04:26:14;;;;;;;19.70;10.00;;;3.80;99.90;;;;;;4971770;28;21687;-84
2022/03/28 04:28:40;;;;;;;19.40;10.13;;;;;;;;;;4982162;28;20221;-85
2022/03/28 04:31:05;;;;;;;27.03;11.70;;;3.80;99.90;;;;;;4980674;28;20437;-84
2022/03/28 04:33:31;;;;;;;21.13;10.87;;;3.80;99.90;;;;;;4970772;28;20493;-83
2022/03/28 04:35:56;;;;;;;21.23;12.53;;;3.80;99.90;;;;;;4968328;28;20688;-83
2022/03/28 04:38:24;;;;;;;27.70;13.43;;;3.20;99.90;;;;;;4971567;28;20184;-85
2022/03/28 04:40:50;;;;;;;23.60;12.23;;;3.70;99.90;;;;;;4970630;28;20178;-83
2022/03/28 04:43:16;;;;;;;43.45;16.48;;;3.50;99.90;;;;;;4970373;28;20307;-84
2022/03/28 04:45:42;;;;;;;25.73;14.20;;;3.60;99.90;;;;;;4968239;28;20202;-82
2022/03/28 04:48:07;;;;;;;24.27;13.47;;;3.50;99.90;;;;;;4973747;28;20184;-82
2022/03/28 04:50:33;;;;;;;25.43;13.87;;;3.50;99.90;;;;;;4969406;28;20644;-82
2022/03/28 04:52:59;;;;;;;28.53;13.40;;;3.40;99.90;;;;;;4968760;28;21028;-86
2022/03/28 04:55:25;;;;;;;25.25;12.10;;;3.40;99.90;;;;;;4975135;28;20214;-85
2022/03/28 04:57:50;;;;;;;25.73;12.10;;;3.50;99.90;;;;;;4967790;28;20660;-84
2022/03/28 05:00:16;;;;;;;45.17;14.70;;;3.40;99.90;;;;;;4966967;28;20186;-84
2022/03/28 05:02:42;;;;;;;31.23;15.10;;;3.50;99.90;;;;;;4969283;28;20257;-86
2022/03/28 05:05:08;;;;;;;29.60;13.87;;;3.50;99.90;;;;;;4972990;28;20219;-83
2022/03/28 05:07:36;;;;;;;29.15;15.15;;;3.60;99.90;;;;;;4963802;28;20241;-82
2022/03/28 05:10:03;;;;;;;30.38;14.88;;;3.70;99.90;;;;;;4994480;28;20172;-83
2022/03/28 05:12:29;;;;;;;27.27;15.02;;;3.70;99.90;;;;;;4980260;28;20247;-84
2022/03/28 05:14:56;;;;;;;26.70;14.10;;;3.70;99.90;;;;;;4975215;28;20302;-83
2022/03/28 05:17:23;;;;;;;31.30;14.20;;;3.80;99.90;;;;;;4968844;28;20442;-83
2022/03/28 05:19:49;;;;;;;26.73;14.30;;;3.80;99.90;;;;;;4969057;28;20242;-84
2022/03/28 05:22:15;;;;;;;22.27;12.25;;;3.80;99.90;;;;;;4972433;28;20203;-84
2022/03/28 05:24:40;;;;;;;26.90;11.40;;;3.80;99.90;;;;;;4976811;28;20246;-85
2022/03/28 05:27:06;;;;;;;22.80;11.67;;;3.90;99.90;;;;;;4969569;28;20286;-83
2022/03/28 05:29:31;;;;;;;29.87;13.47;;;3.80;99.90;;;;;;4986862;28;20211;-83
2022/03/28 05:31:57;;;;;;;22.37;12.07;;;4.00;99.90;;;;;;4969293;28;20286;-83
2022/03/28 05:34:23;;;;;;;22.97;12.70;;;4.20;99.90;;;;;;4971385;28;20202;-83
2022/03/28 05:36:49;;;;;;;27.13;12.48;;;4.60;99.90;;;;;;4976278;28;20175;-84
2022/03/28 05:39:14;;;;;;;22.53;11.33;;;5.30;99.90;;;;;;4981461;28;20199;-84
2022/03/28 05:41:41;;;;;;;21.63;10.63;;;6.10;99.90;;;;;;4973860;28;20198;-82
2022/03/28 05:44:06;;;;;;;18.63;8.98;;;6.60;99.90;;;;;;4970559;28;20218;-85
2022/03/28 05:46:32;;;;;;;27.20;10.67;;;7.00;99.90;;;;;;4975674;28;20183;-83
2022/03/28 05:48:59;;;;;;;22.17;10.40;;;8.00;99.90;;;;;;4967490;28;20590;-83
2022/03/28 05:51:25;;;;;;;22.02;11.38;;;9.10;99.90;;;;;;4982856;28;20179;-82
2022/03/28 05:53:51;;;;;;;17.80;10.17;;;10.30;99.90;;;;;;4988116;28;20207;-82
2022/03/28 05:56:17;;;;;;;19.33;9.45;;;11.60;99.90;;;;;;4986316;28;20183;-84
2022/03/28 05:58:42;;;;;;;20.97;10.20;;;12.90;99.90;;;;;;4981659;28;20198;-83
2022/03/28 06:01:08;;;;;;;28.27;13.73;;;14.00;99.90;;;;;;4966520;28;20438;-82
2022/03/28 06:03:34;;;;;;;25.25;13.52;;;15.20;99.90;;;;;;4970968;28;20199;-84
2022/03/28 06:06:03;;;;;;;20.33;11.37;;;16.30;99.90;;;;;;4970515;28;20208;-84
2022/03/28 06:08:43;;;;;;;22.83;11.40;;;17.40;99.90;;;;;;4983107;28;20441;-84
2022/03/28 06:11:10;;;;;;;27.97;14.20;;;18.50;98.10;;;;;;4999478;28;20430;-83
2022/03/28 06:13:36;;;;;;;21.13;13.03;;;19.20;92.20;;;;;;4997778;23;20858;-83
2022/03/28 06:16:03;;;;;;;21.00;11.73;;;19.80;90.20;;;;;;4967868;28;20439;-83
2022/03/28 06:18:28;;;;;;;34.33;13.30;;;20.60;87.30;;;;;;4977719;28;20517;-83
2022/03/28 06:20:54;;;;;;;23.37;13.63;;;21.50;81.30;;;;;;4966775;28;20435;-83
2022/03/28 06:23:20;;;;;;;32.07;16.57;;;22.20;74.20;;;;;;4969179;28;20171;-82
2022/03/28 06:25:46;;;;;;;27.07;15.60;;;22.70;71.30;;;;;;4969512;28;20238;-82
2022/03/28 06:28:12;;;;;;;30.53;16.73;;;23.50;67.40;;;;;;4969063;28;20691;-85
2022/03/28 06:30:38;;;;;;;27.73;15.33;;;24.70;63.80;;;;;;4979936;28;20230;-85
2022/03/28 06:33:03;;;;;;;23.23;14.53;;;25.50;59.60;;;;;;4967497;28;20496;-83
2022/03/28 06:35:29;;;;;;;17.90;12.77;;;26.20;56.60;;;;;;4971339;28;20581;-83
2022/03/28 06:37:55;;;;;;;20.30;13.90;;;26.70;53.50;;;;;;4966251;28;20209;-84
2022/03/28 06:40:21;;;;;;;19.87;13.53;;;27.30;51.90;;;;;;4969244;28;20554;-84
2022/03/28 06:42:46;;;;;;;20.83;14.13;;;27.90;48.90;;;;;;4969230;28;20482;-84
2022/03/28 06:45:12;;;;;;;17.53;13.13;;;27.40;46.60;;;;;;4965810;28;20645;-85
2022/03/28 06:47:40;;;;;;;21.53;14.90;;;26.80;46.00;;;;;;4972072;28;20261;-85
2022/03/28 06:50:07;;;;;;;21.93;14.07;;;26.80;45.80;;;;;;4970976;28;20529;-83
2022/03/28 06:52:34;;;;;;;22.03;13.63;;;26.00;46.50;;;;;;4970680;28;20904;-84
2022/03/28 06:55:00;;;;;;;21.60;14.00;;;25.70;46.40;;;;;;5001859;28;20474;-83
2022/03/28 06:57:26;;;;;;;23.63;14.47;;;25.50;47.60;;;;;;4967618;28;20506;-83
2022/03/28 06:59:53;;;;;;;20.83;14.73;;;26.20;47.00;;;;;;4966614;28;20188;-83
2022/03/28 07:02:19;;;;;;;22.47;13.13;;;27.00;46.40;;;;;;4964172;28;20200;-84
2022/03/28 07:04:44;;;;;;;17.90;13.40;;;28.00;45.20;;;;;;4969726;28;20471;-83
2022/03/28 07:07:10;;;;;;;21.07;14.53;;;27.80;43.60;;;;;;4968692;28;20462;-86
2022/03/28 07:09:35;;;;;;;17.70;14.23;;;27.50;44.50;;;;;;4971168;28;20180;-84
2022/03/28 07:12:03;;;;;;;22.47;14.83;;;27.10;44.50;;;;;;4970165;28;20255;-86
2022/03/28 07:14:29;;;;;;;19.03;13.53;;;26.40;44.50;;;;;;4970413;28;20843;-86
2022/03/28 07:16:54;;;;;;;21.23;14.47;;;26.00;45.10;;;;;;4969110;28;20449;-84
2022/03/28 07:19:20;;;;;;;19.13;13.83;;;25.70;45.70;;;;;;4969718;28;20449;-85
2022/03/28 07:21:46;;;;;;;21.00;15.10;;;26.10;46.40;;;;;;4966340;28;20299;-84
2022/03/28 07:24:11;;;;;;;17.63;15.17;;;27.20;44.90;;;;;;4966329;28;20734;-84
2022/03/28 07:26:37;;;;;;;23.50;15.57;;;27.90;42.70;;;;;;4972266;28;20205;-86
2022/03/28 07:29:04;;;;;;;20.67;15.10;;;27.90;43.10;;;;;;4968262;28;20213;-85
2022/03/28 07:31:30;;;;;;;25.63;15.60;;;27.80;42.80;;;;;;5000612;28;20185;-85
2022/03/28 07:36:40;;;;;;;20.67;15.50;;;26.90;43.70;;;;;;4970778;28;20813;-84
2022/03/28 07:39:05;;;;;;;22.80;16.40;;;26.90;44.10;;;;;;4974697;28;20438;-84
2022/03/28 07:41:31;;;;;;;31.03;17.03;;;26.90;44.10;;;;;;4970286;28;20182;-84
2022/03/28 07:43:57;;;;;;;20.43;15.90;;;27.00;43.70;;;;;;4968175;28;20189;-83
2022/03/28 07:46:22;;;;;;;22.30;14.93;;;28.10;45.60;;;;;;4971596;28;20277;-85
2022/03/28 07:48:48;;;;;;;20.27;15.03;;;28.10;44.80;;;;;;4971817;28;20210;-83
2022/03/28 07:51:13;;;;;;;27.47;16.10;;;29.30;43.50;;;;;;4969180;28;20625;-85
2022/03/28 07:53:39;;;;;;;23.93;15.80;;;29.40;40.80;;;;;;4967509;28;20859;-84
2022/03/28 07:56:05;;;;;;;21.77;15.10;;;28.90;40.40;;;;;;4974116;28;20187;-83
2022/03/28 07:58:30;;;;;;;18.90;16.00;;;28.30;41.30;;;;;;4969187;28;21326;-83
2022/03/28 08:00:56;;;;;;;24.30;16.53;;;28.10;42.40;;;;;;4967064;28;20197;-84
2022/03/28 08:03:22;;;;;;;23.63;15.10;;;27.50;42.50;;;;;;4972341;28;20188;-84
2022/03/28 08:05:47;;;;;;;25.40;15.87;;;27.80;42.20;;;;;;4972696;28;20204;-83
2022/03/28 08:08:13;;;;;;;24.73;16.10;;;27.80;42.20;;;;;;4972624;28;20281;-84
2022/03/28 08:10:39;;;;;;;21.30;15.20;;;28.50;41.50;;;;;;4970068;28;20195;-83
2022/03/28 08:13:04;;;;;;;19.70;15.73;;;27.50;42.20;;;;;;4969375;28;21091;-83
2022/03/28 08:15:30;;;;;;;22.00;14.83;;;28.10;42.60;;;;;;4971034;28;20193;-86
2022/03/28 08:17:59;;;;;;;23.57;16.17;;;29.10;42.00;;;;;;4970800;28;21313;-86
2022/03/28 08:20:25;;;;;;;23.20;15.70;;;29.40;40.30;;;;;;4996866;28;20190;-83
2022/03/28 08:22:51;;;;;;;37.20;14.93;;;29.30;39.70;;;;;;4994352;28;20439;-85
2022/03/28 08:25:18;;;;;;;22.73;14.90;;;29.40;39.60;;;;;;4970039;28;20475;-85
2022/03/28 08:27:44;;;;;;;20.83;15.80;;;29.60;38.60;;;;;;4994872;28;21149;-84
2022/03/28 08:30:12;;;;;;;25.17;17.00;;;29.40;37.80;;;;;;4969319;28;20431;-86
2022/03/28 08:32:38;;;;;;;26.60;16.73;;;29.80;37.60;;;;;;4968021;28;20198;-85
2022/03/28 08:35:05;;;;;;;21.03;16.33;;;29.60;38.40;;;;;;4970804;28;20437;-85
2022/03/28 08:37:31;;;;;;;19.80;14.90;;;30.80;38.10;;;;;;4969077;28;20484;-85
2022/03/28 08:39:57;;;;;;;20.80;15.67;;;30.20;34.60;;;;;;4970128;28;20531;-84
2022/03/28 08:42:24;;;;;;;25.33;16.97;;;28.90;35.80;;;;;;4971534;28;20430;-85
2022/03/28 08:44:50;;;;;;;21.93;15.50;;;29.20;36.80;;;;;;4967016;28;20206;-86
2022/03/28 08:47:22;;;;;;;24.13;16.07;;;29.50;37.20;;;;;;4967506;28;20475;-86
2022/03/28 08:49:49;;;;;;;21.97;15.70;;;31.00;36.70;;;;;;4968003;28;20524;-83
2022/03/28 08:52:16;;;;;;;23.60;16.60;;;31.10;35.60;;;;;;4968930;28;20460;-84
2022/03/28 08:54:42;;;;;;;21.83;16.60;;;30.00;35.10;;;;;;5001950;28;20439;-83
2022/03/28 08:57:07;;;;;;;24.00;17.70;;;30.10;33.90;;;;;;4981199;28;20457;-84
2022/03/28 08:59:33;;;;;;;27.53;16.80;;;31.20;34.20;;;;;;4973423;28;20508;-84
2022/03/28 09:01:58;;;;;;;22.10;15.27;;;31.80;33.70;;;;;;4970706;28;20706;-84
2022/03/28 09:04:24;;;;;;;25.93;15.77;;;;;;;;;;4973176;28;20679;-83
2022/03/28 09:06:50;;;;;;;24.80;15.77;;;29.70;33.00;;;;;;4973737;28;20182;-84
2022/03/28 09:09:21;;;;;;;30.40;15.17;;;29.60;33.70;;;;;;4974121;28;20502;-85
2022/03/28 09:11:53;;;;;;;27.33;14.83;;;29.60;34.30;;;;;;4973672;28;20256;-83
2022/03/28 09:14:36;;;;;;;22.50;14.70;;;29.20;36.20;;;;;;5006357;28;20537;-83
2022/03/28 09:17:11;;;;;;;23.13;14.17;;;29.60;35.50;;;;;;4981366;28;20461;-83
2022/03/28 09:19:43;;;;;;;23.17;15.00;;;30.00;35.00;;;;;;4975662;28;20446;-83
2022/03/28 09:22:17;;;;;;;27.40;16.07;;;29.80;34.60;;;;;;4988305;28;20527;-85
2022/03/28 09:24:44;;;;;;;27.17;15.17;;;29.90;35.70;;;;;;4973574;28;20464;-84
2022/03/28 09:27:21;;;;;;;26.50;14.67;;;29.70;35.10;;;;;;4980398;28;21052;-85
2022/03/28 09:30:10;;;;;;;23.63;14.83;;;29.20;34.90;;;;;;4971345;28;21191;-84
2022/03/28 09:32:52;;;;;;;23.37;14.67;;;29.70;33.70;;;;;;4973141;28;20533;-84
2022/03/28 09:35:19;;;;;;;27.03;14.13;;;29.70;34.40;;;;;;4975008;28;20443;-84
2022/03/28 09:37:49;;;;;;;33.63;15.30;;;28.50;33.70;;;;;;4973058;28;20558;-85
2022/03/28 09:40:30;;;;;;;22.30;15.30;;;28.80;35.50;;;;;;4973643;28;20444;-83
2022/03/28 09:42:57;;;;;;;30.37;17.30;;;28.60;34.80;;;;;;4974321;28;20497;-85
2022/03/28 09:45:25;;;;;;;27.20;15.60;;;28.50;34.80;;;;;;4973028;28;20560;-84
2022/03/28 09:48:00;;;;;;;24.40;14.37;;;28.30;35.70;;;;;;4972482;28;20468;-85
2022/03/28 09:50:31;;;;;;;22.33;14.50;;;28.90;36.00;;;;;;4968810;28;20435;-85
2022/03/28 09:53:08;;;;;;;24.87;15.30;;;29.40;35.90;;;;;;4974236;28;20458;-85
2022/03/28 09:56:04;;;;;;;20.10;14.77;;;29.80;35.20;;;;;;4973795;28;20660;-84
2022/03/28 09:58:35;;;;;;;27.47;16.33;;;29.90;34.20;;;;;;4969201;28;20459;-84
2022/03/28 10:01:04;;;;;;;24.93;15.90;;;28.60;34.90;;;;;;4971925;28;20936;-85
2022/03/28 10:03:33;;;;;;;32.20;16.53;;;27.50;36.30;;;;;;4997868;28;20433;-84
2022/03/28 10:06:04;;;;;;;25.37;15.67;;;26.80;36.80;;;;;;4967125;28;20515;-84
2022/03/28 10:08:30;;;;;;;25.47;17.13;;;26.50;38.30;;;;;;4970273;28;20454;-84
2022/03/28 10:10:58;;;;;;;30.23;16.30;;;26.70;39.30;;;;;;4967340;28;20465;-85
2022/03/28 10:13:24;;;;;;;25.03;16.40;;;26.30;38.40;;;;;;4973523;28;21068;-84
2022/03/28 10:15:50;;;;;;;32.37;16.00;;;25.00;40.00;;;;;;4971769;28;20460;-84
2022/03/28 10:18:16;;;;;;;22.93;15.20;;;23.80;40.00;;;;;;4970005;28;20217;-84
2022/03/28 10:20:44;;;;;;;28.20;16.00;;;22.50;44.30;;;;;;4970236;28;20525;-83
2022/03/28 10:23:14;;;;;;;26.27;14.30;;;21.80;43.70;;;;;;4972778;28;20242;-84
2022/03/28 10:25:41;;;;;;;31.70;16.90;;;21.30;45.10;;;;;;4970422;28;22401;-85
2022/03/28 10:28:08;;;;;;;25.03;14.90;;;21.20;45.00;;;;;;4967779;28;20482;-83
2022/03/28 10:30:34;;;;;;;29.53;15.73;;;21.30;45.70;;;;;;4968422;28;20447;-85
2022/03/28 10:33:16;;;;;;;31.83;17.63;;;21.30;48.30;;;;;;5006336;28;20507;-86
2022/03/28 10:36:35;;;;;;;30.77;15.10;;;21.50;45.50;;;;;;4966720;28;20496;-85
2022/03/28 10:39:31;;;;;;;26.00;14.17;;;21.50;46.40;;;;;;4951669;28;20466;-85
2022/03/28 10:42:05;;;;;;;27.03;15.53;;;20.30;48.60;;;;;;4968655;28;20461;-85
2022/03/28 10:44:45;;;;;;;24.77;15.07;;;20.00;48.90;;;;;;4969958;28;20486;-85
2022/03/28 10:47:13;;;;;;;25.70;14.27;;;19.90;48.10;;;;;;4976936;28;20463;-85
2022/03/28 10:49:43;;;;;;;28.27;14.13;;;20.00;48.40;;;;;;5001399;28;20451;-85
2022/03/28 10:52:15;;;;;;;22.70;14.17;;;20.20;47.70;;;;;;4970442;28;20438;-85
2022/03/28 10:54:41;;;;;;;26.53;12.90;;;20.30;48.60;;;;;;4982579;28;20598;-86
2022/03/28 10:57:24;;;;;;;25.20;14.20;;;20.00;49.10;;;;;;4972695;28;20553;-84
2022/03/28 11:00:08;;;;;;;21.40;12.67;;;20.10;49.60;;;;;;5002324;28;20220;-84
2022/03/28 11:02:35;;;;;;;30.27;15.30;;;20.40;49.00;;;;;;4966753;28;20584;-84
2022/03/28 11:05:12;;;;;;;26.03;15.70;;;20.10;49.90;;;;;;4968648;28;20459;-84
2022/03/28 11:07:37;;;;;;;24.50;12.73;;;20.10;49.10;;;;;;4964679;28;20485;-84
2022/03/28 11:10:06;;;;;;;24.70;13.00;;;20.00;48.30;;;;;;4966589;28;20947;-83
2022/03/28 11:12:37;;;;;;;24.63;15.80;;;19.60;49.20;;;;;;4973261;28;20560;-86
2022/03/28 11:15:13;;;;;;;27.57;16.27;;;19.60;48.80;;;;;;4964149;28;20509;-84
2022/03/28 11:17:55;;;;;;;23.03;12.40;;;19.70;48.80;;;;;;4963480;28;20464;-83
2022/03/28 11:20:24;;;;;;;23.03;12.50;;;19.50;49.70;;;;;;4969586;28;20435;-83
2022/03/28 11:23:06;;;;;;;20.67;12.20;;;19.20;48.90;;;;;;4986740;28;20441;-83
2022/03/28 11:25:34;;;;;;;22.17;12.63;;;19.20;50.00;;;;;;4968404;28;20458;-83
2022/03/28 11:28:09;;;;;;;32.27;13.90;;;19.30;49.10;;;;;;4977824;28;20446;-83
2022/03/28 11:30:46;;;;;;;27.47;14.53;;;19.40;49.60;;;;;;4987796;28;20734;-84
2022/03/28 11:33:16;;;;;;;35.17;15.67;;;19.20;49.40;;;;;;4987927;28;21233;-83
2022/03/28 11:35:53;;;;;;;25.07;13.23;;;19.30;48.40;;;;;;4988010;28;20429;-83
2022/03/28 11:38:25;;;;;;;22.03;13.17;;;19.30;48.80;;;;;;4988728;28;20505;-83
2022/03/28 11:40:52;;;;;;;25.40;13.73;;;19.20;49.40;;;;;;4976737;28;20428;-83
2022/03/28 11:43:26;;;;;;;25.20;12.60;;;19.40;50.10;;;;;;4988731;28;20953;-84
2022/03/28 11:45:54;;;;;;;26.73;13.40;;;19.10;47.90;;;;;;4986088;28;21222;-83
2022/03/28 11:48:19;;;;;;;23.53;13.13;;;19.30;48.90;;;;;;4986488;28;21042;-84
2022/03/28 11:50:46;;;;;;;27.10;14.30;;;19.40;48.70;;;;;;4986350;28;20421;-84
2022/03/28 11:53:17;;;;;;;24.73;12.93;;;19.20;47.80;;;;;;4988402;28;20222;-83
2022/03/28 11:55:48;;;;;;;26.30;14.37;;;19.30;48.40;;;;;;4987815;28;20430;-83
2022/03/28 11:58:19;;;;;;;31.43;14.17;;;19.30;49.30;;;;;;4988552;28;20434;-82
2022/03/28 12:00:48;;;;;;;29.50;13.20;;;19.50;51.30;;;;;;4986418;28;20434;-83
2022/03/28 12:03:15;;;;;;;24.63;12.73;;;19.50;48.80;;;;;;4989129;28;20425;-83
2022/03/28 12:05:47;;;;;;;21.53;11.97;;;19.60;51.20;;;;;;4986539;28;20458;-83
2022/03/28 12:08:19;;;;;;;27.10;13.83;;;19.40;48.30;;;;;;4986809;28;20446;-83
2022/03/28 12:10:52;;;;;;;29.27;14.37;;;19.40;49.20;;;;;;4988277;28;20434;-83
2022/03/28 12:13:21;;;;;;;27.80;14.50;;;19.40;49.20;;;;;;4940698;28;1018628;-83
2022/03/28 12:15:49;;;;;;;25.83;14.53;;;19.50;51.00;;;;;;4971179;28;20183;-83
2022/03/28 12:18:18;;;;;;;36.93;14.07;;;19.60;50.00;;;;;;4967777;28;21222;-83
2022/03/28 12:20:52;;;;;;;30.43;13.90;;;19.70;48.70;;;;;;4971591;28;20439;-83
2022/03/28 12:23:20;;;;;;;25.80;13.10;;;19.70;49.20;;;;;;4971973;28;20415;-83
2022/03/28 12:25:51;;;;;;;25.40;13.80;;;19.60;48.90;;;;;;4969349;28;21345;-83
2022/03/28 12:28:49;;;;;;;29.33;14.57;;;19.60;48.30;;;;;;4980413;28;20454;-83
2022/03/28 12:31:15;;;;;;;20.93;12.80;;;19.80;48.50;;;;;;4946852;28;20840;-83
2022/03/28 12:33:43;;;;;;;22.33;12.93;;;19.90;46.40;;;;;;4992008;28;20926;-84
2022/03/28 12:36:11;;;;;;;25.67;12.20;;;19.80;47.90;;;;;;4992323;28;20488;-83
2022/03/28 12:38:40;;;;;;;28.10;14.53;;;19.90;47.00;;;;;;4986186;28;20464;-83